sensor_id;sensor_type;location;lat;lon;timestamp;P1;durP1;ratioP1;P2;durP2;ratioP2
18818;SDS011;9537;45.594;9.294;2023-03-26T00:01:00;1.60;;;1.37;;
18818;SDS011;9537;45.594;9.294;2023-03-26T00:02:05;1.67;;;1.30;;
18818;SDS011;9537;45.594;9.294;2023-03-26T00:03:06;3.30;;;1.17;;
18818;SDS011;9537;45.594;9.294;2023-03-26T00:04:10;2.07;;;1.40;;
18818;SDS011;9537;45.594;9.294;2023-03-26T00:05:11;1.80;;;1.30;;
18818;SDS011;9537;45.594;9.294;2023-03-26T00:06:15;2.47;;;1.43;;
18818;SDS011;9537;45.594;9.294;2023-03-26T00:07:16;2.13;;;1.40;;
18818;SDS011;9537;45.594;9.294;2023-03-26T00:08:18;2.23;;;1.40;;
18818;SDS011;9537;45.594;9.294;2023-03-26T00:09:19;1.77;;;1.57;;
18818;SDS011;9537;45.594;9.294;2023-03-26T00:10:21;3.03;;;1.90;;
18818;SDS011;9537;45.594;9.294;2023-03-26T00:11:24;3.17;;;1.83;;
18818;SDS011;9537;45.594;9.294;2023-03-26T00:12:27;3.23;;;1.53;;
18818;SDS011;9537;45.594;9.294;2023-03-26T00:13:28;3.23;;;1.83;;
18818;SDS011;9537;45.594;9.294;2023-03-26T00:14:31;3.47;;;1.60;;
18818;SDS011;9537;45.594;9.294;2023-03-26T00:15:33;3.00;;;1.73;;
18818;SDS011;9537;45.594;9.294;2023-03-26T00:16:36;1.40;;;1.30;;
18818;SDS011;9537;45.594;9.294;2023-03-26T00:17:37;1.70;;;1.30;;
18818;SDS011;9537;45.594;9.294;2023-03-26T00:18:39;1.67;;;1.47;;
18818;SDS011;9537;45.594;9.294;2023-03-26T00:19:41;2.53;;;1.60;;
18818;SDS011;9537;45.594;9.294;2023-03-26T00:20:43;2.43;;;1.30;;
18818;SDS011;9537;45.594;9.294;2023-03-26T00:21:45;1.73;;;1.30;;
18818;SDS011;9537;45.594;9.294;2023-03-26T00:22:47;3.67;;;1.60;;
18818;SDS011;9537;45.594;9.294;2023-03-26T00:23:50;1.63;;;1.50;;
18818;SDS011;9537;45.594;9.294;2023-03-26T00:24:52;3.30;;;1.60;;
18818;SDS011;9537;45.594;9.294;2023-03-26T00:25:56;2.30;;;1.60;;
18818;SDS011;9537;45.594;9.294;2023-03-26T00:27:01;2.07;;;1.47;;
18818;SDS011;9537;45.594;9.294;2023-03-26T00:28:02;4.47;;;1.60;;
18818;SDS011;9537;45.594;9.294;2023-03-26T00:29:05;2.47;;;1.60;;
18818;SDS011;9537;45.594;9.294;2023-03-26T00:30:09;2.93;;;1.60;;
18818;SDS011;9537;45.594;9.294;2023-03-26T00:31:12;2.80;;;1.73;;
18818;SDS011;9537;45.594;9.294;2023-03-26T00:32:14;2.13;;;1.60;;
18818;SDS011;9537;45.594;9.294;2023-03-26T00:33:16;2.23;;;1.70;;
18818;SDS011;9537;45.594;9.294;2023-03-26T00:34:17;2.20;;;1.47;;
18818;SDS011;9537;45.594;9.294;2023-03-26T00:35:20;2.30;;;1.60;;
18818;SDS011;9537;45.594;9.294;2023-03-26T00:36:22;1.93;;;1.60;;
18818;SDS011;9537;45.594;9.294;2023-03-26T00:37:25;3.77;;;2.13;;
18818;SDS011;9537;45.594;9.294;2023-03-26T00:38:27;2.17;;;1.80;;
18818;SDS011;9537;45.594;9.294;2023-03-26T00:39:30;3.20;;;2.00;;
18818;SDS011;9537;45.594;9.294;2023-03-26T00:40:36;4.33;;;2.10;;
18818;SDS011;9537;45.594;9.294;2023-03-26T00:41:37;1.93;;;1.67;;
18818;SDS011;9537;45.594;9.294;2023-03-26T00:42:43;4.40;;;2.33;;
18818;SDS011;9537;45.594;9.294;2023-03-26T00:43:44;2.50;;;1.87;;
18818;SDS011;9537;45.594;9.294;2023-03-26T00:44:47;3.20;;;2.20;;
18818;SDS011;9537;45.594;9.294;2023-03-26T00:45:54;3.20;;;2.30;;
18818;SDS011;9537;45.594;9.294;2023-03-26T00:46:55;2.80;;;1.97;;
18818;SDS011;9537;45.594;9.294;2023-03-26T00:47:57;3.10;;;1.93;;
18818;SDS011;9537;45.594;9.294;2023-03-26T00:48:58;4.87;;;1.73;;
18818;SDS011;9537;45.594;9.294;2023-03-26T00:50:03;2.17;;;1.70;;
18818;SDS011;9537;45.594;9.294;2023-03-26T00:51:05;3.70;;;1.70;;
18818;SDS011;9537;45.594;9.294;2023-03-26T00:52:08;4.67;;;1.80;;
18818;SDS011;9537;45.594;9.294;2023-03-26T00:53:09;2.70;;;1.40;;
18818;SDS011;9537;45.594;9.294;2023-03-26T00:54:13;2.37;;;1.70;;
18818;SDS011;9537;45.594;9.294;2023-03-26T00:55:14;1.83;;;1.50;;
18818;SDS011;9537;45.594;9.294;2023-03-26T00:56:16;4.53;;;1.80;;
18818;SDS011;9537;45.594;9.294;2023-03-26T00:57:18;4.17;;;1.80;;
18818;SDS011;9537;45.594;9.294;2023-03-26T00:58:22;2.80;;;1.80;;
18818;SDS011;9537;45.594;9.294;2023-03-26T00:59:23;2.40;;;1.83;;
18818;SDS011;9537;45.594;9.294;2023-03-26T01:00:30;2.57;;;1.60;;
18818;SDS011;9537;45.594;9.294;2023-03-26T01:01:34;2.53;;;1.60;;
18818;SDS011;9537;45.594;9.294;2023-03-26T01:02:37;2.67;;;1.90;;
18818;SDS011;9537;45.594;9.294;2023-03-26T01:03:39;1.80;;;1.33;;
18818;SDS011;9537;45.594;9.294;2023-03-26T01:04:43;1.67;;;1.43;;
18818;SDS011;9537;45.594;9.294;2023-03-26T01:05:46;3.47;;;1.30;;
18818;SDS011;9537;45.594;9.294;2023-03-26T01:06:52;4.37;;;1.50;;
18818;SDS011;9537;45.594;9.294;2023-03-26T01:07:54;3.37;;;1.70;;
18818;SDS011;9537;45.594;9.294;2023-03-26T01:08:57;3.50;;;1.87;;
18818;SDS011;9537;45.594;9.294;2023-03-26T01:10:03;1.60;;;1.50;;
18818;SDS011;9537;45.594;9.294;2023-03-26T01:11:06;3.57;;;1.80;;
18818;SDS011;9537;45.594;9.294;2023-03-26T01:12:13;2.90;;;1.67;;
18818;SDS011;9537;45.594;9.294;2023-03-26T01:13:18;3.47;;;2.00;;
18818;SDS011;9537;45.594;9.294;2023-03-26T01:14:23;2.87;;;1.67;;
18818;SDS011;9537;45.594;9.294;2023-03-26T01:15:28;2.80;;;1.50;;
18818;SDS011;9537;45.594;9.294;2023-03-26T01:16:30;2.00;;;1.80;;
18818;SDS011;9537;45.594;9.294;2023-03-26T01:17:37;2.10;;;1.57;;
18818;SDS011;9537;45.594;9.294;2023-03-26T01:18:42;4.00;;;1.87;;
18818;SDS011;9537;45.594;9.294;2023-03-26T01:19:46;1.87;;;1.53;;
18818;SDS011;9537;45.594;9.294;2023-03-26T01:20:53;3.27;;;1.67;;
18818;SDS011;9537;45.594;9.294;2023-03-26T01:22:04;2.13;;;1.60;;
18818;SDS011;9537;45.594;9.294;2023-03-26T01:23:08;3.67;;;1.70;;
18818;SDS011;9537;45.594;9.294;2023-03-26T01:24:11;2.27;;;1.83;;
18818;SDS011;9537;45.594;9.294;2023-03-26T01:25:14;4.23;;;1.90;;
18818;SDS011;9537;45.594;9.294;2023-03-26T01:26:18;5.13;;;1.77;;
18818;SDS011;9537;45.594;9.294;2023-03-26T01:27:32;3.60;;;2.17;;
18818;SDS011;9537;45.594;9.294;2023-03-26T01:28:40;1.83;;;1.63;;
18818;SDS011;9537;45.594;9.294;2023-03-26T01:29:43;2.47;;;1.60;;
18818;SDS011;9537;45.594;9.294;2023-03-26T01:30:48;3.83;;;1.80;;
18818;SDS011;9537;45.594;9.294;2023-03-26T01:32:02;1.90;;;1.53;;
18818;SDS011;9537;45.594;9.294;2023-03-26T01:33:14;4.07;;;1.80;;
18818;SDS011;9537;45.594;9.294;2023-03-26T01:34:22;3.47;;;1.70;;
18818;SDS011;9537;45.594;9.294;2023-03-26T01:35:32;2.53;;;1.43;;
18818;SDS011;9537;45.594;9.294;2023-03-26T01:36:46;2.90;;;1.60;;
18818;SDS011;9537;45.594;9.294;2023-03-26T01:37:55;4.30;;;1.70;;
18818;SDS011;9537;45.594;9.294;2023-03-26T01:39:12;3.43;;;1.80;;
18818;SDS011;9537;45.594;9.294;2023-03-26T01:40:22;2.57;;;1.87;;
18818;SDS011;9537;45.594;9.294;2023-03-26T01:41:29;3.30;;;2.10;;
18818;SDS011;9537;45.594;9.294;2023-03-26T01:42:36;4.87;;;2.23;;
18818;SDS011;9537;45.594;9.294;2023-03-26T01:43:44;4.20;;;2.33;;
18818;SDS011;9537;45.594;9.294;2023-03-26T01:44:51;3.73;;;2.00;;
18818;SDS011;9537;45.594;9.294;2023-03-26T01:46:00;3.30;;;1.90;;
18818;SDS011;9537;45.594;9.294;2023-03-26T01:47:04;3.40;;;1.83;;
18818;SDS011;9537;45.594;9.294;2023-03-26T01:48:08;4.07;;;2.00;;
18818;SDS011;9537;45.594;9.294;2023-03-26T01:49:10;4.30;;;1.70;;
18818;SDS011;9537;45.594;9.294;2023-03-26T01:50:12;2.10;;;1.90;;
18818;SDS011;9537;45.594;9.294;2023-03-26T01:51:24;3.40;;;2.00;;
18818;SDS011;9537;45.594;9.294;2023-03-26T01:52:28;3.47;;;1.53;;
18818;SDS011;9537;45.594;9.294;2023-03-26T01:53:30;3.20;;;1.80;;
18818;SDS011;9537;45.594;9.294;2023-03-26T01:54:37;3.53;;;2.20;;
18818;SDS011;9537;45.594;9.294;2023-03-26T01:55:41;3.63;;;1.97;;
18818;SDS011;9537;45.594;9.294;2023-03-26T01:56:58;4.43;;;2.00;;
18818;SDS011;9537;45.594;9.294;2023-03-26T01:58:11;2.20;;;1.77;;
18818;SDS011;9537;45.594;9.294;2023-03-26T01:59:38;5.70;;;2.10;;
18818;SDS011;9537;45.594;9.294;2023-03-26T02:00:50;4.40;;;2.07;;
18818;SDS011;9537;45.594;9.294;2023-03-26T02:02:03;2.77;;;2.30;;
18818;SDS011;9537;45.594;9.294;2023-03-26T02:03:15;3.60;;;2.10;;
18818;SDS011;9537;45.594;9.294;2023-03-26T02:04:27;1.70;;;1.60;;
18818;SDS011;9537;45.594;9.294;2023-03-26T02:05:34;3.17;;;2.20;;
18818;SDS011;9537;45.594;9.294;2023-03-26T02:06:43;4.63;;;2.10;;
18818;SDS011;9537;45.594;9.294;2023-03-26T02:07:47;4.17;;;2.00;;
18818;SDS011;9537;45.594;9.294;2023-03-26T02:08:55;4.07;;;2.30;;
18818;SDS011;9537;45.594;9.294;2023-03-26T02:10:03;4.43;;;2.17;;
18818;SDS011;9537;45.594;9.294;2023-03-26T02:11:11;3.83;;;2.23;;
18818;SDS011;9537;45.594;9.294;2023-03-26T02:12:14;2.90;;;2.10;;
18818;SDS011;9537;45.594;9.294;2023-03-26T02:13:18;3.50;;;2.20;;
18818;SDS011;9537;45.594;9.294;2023-03-26T02:14:19;4.50;;;2.10;;
18818;SDS011;9537;45.594;9.294;2023-03-26T02:15:22;2.63;;;1.83;;
18818;SDS011;9537;45.594;9.294;2023-03-26T02:16:23;4.47;;;2.00;;
18818;SDS011;9537;45.594;9.294;2023-03-26T02:17:25;5.33;;;2.10;;
18818;SDS011;9537;45.594;9.294;2023-03-26T02:18:29;3.07;;;1.97;;
18818;SDS011;9537;45.594;9.294;2023-03-26T02:19:36;2.97;;;2.17;;
18818;SDS011;9537;45.594;9.294;2023-03-26T02:20:41;3.80;;;2.13;;
18818;SDS011;9537;45.594;9.294;2023-03-26T02:21:43;3.30;;;2.30;;
18818;SDS011;9537;45.594;9.294;2023-03-26T02:22:45;7.10;;;2.40;;
18818;SDS011;9537;45.594;9.294;2023-03-26T02:23:48;2.43;;;2.10;;
18818;SDS011;9537;45.594;9.294;2023-03-26T02:24:56;3.40;;;2.50;;
18818;SDS011;9537;45.594;9.294;2023-03-26T02:26:00;5.03;;;2.77;;
18818;SDS011;9537;45.594;9.294;2023-03-26T02:27:02;6.13;;;2.63;;
18818;SDS011;9537;45.594;9.294;2023-03-26T02:28:07;5.97;;;3.07;;
18818;SDS011;9537;45.594;9.294;2023-03-26T02:29:07;3.37;;;2.73;;
18818;SDS011;9537;45.594;9.294;2023-03-26T02:30:11;4.53;;;3.00;;
18818;SDS011;9537;45.594;9.294;2023-03-26T02:31:14;5.07;;;3.37;;
18818;SDS011;9537;45.594;9.294;2023-03-26T02:32:16;6.27;;;3.70;;
18818;SDS011;9537;45.594;9.294;2023-03-26T02:33:18;5.87;;;3.83;;
18818;SDS011;9537;45.594;9.294;2023-03-26T02:34:20;4.43;;;3.40;;
18818;SDS011;9537;45.594;9.294;2023-03-26T02:35:21;8.70;;;4.00;;
18818;SDS011;9537;45.594;9.294;2023-03-26T02:36:23;6.70;;;4.00;;
18818;SDS011;9537;45.594;9.294;2023-03-26T02:37:27;6.17;;;3.80;;
18818;SDS011;9537;45.594;9.294;2023-03-26T02:38:30;6.00;;;4.00;;
18818;SDS011;9537;45.594;9.294;2023-03-26T02:39:33;5.13;;;4.00;;
18818;SDS011;9537;45.594;9.294;2023-03-26T02:40:35;5.10;;;3.87;;
18818;SDS011;9537;45.594;9.294;2023-03-26T02:41:37;5.87;;;4.03;;
18818;SDS011;9537;45.594;9.294;2023-03-26T02:42:39;6.23;;;3.40;;
18818;SDS011;9537;45.594;9.294;2023-03-26T02:43:40;7.13;;;3.80;;
18818;SDS011;9537;45.594;9.294;2023-03-26T02:44:42;5.73;;;3.50;;
18818;SDS011;9537;45.594;9.294;2023-03-26T02:45:43;4.23;;;3.20;;
18818;SDS011;9537;45.594;9.294;2023-03-26T02:46:46;4.37;;;3.20;;
18818;SDS011;9537;45.594;9.294;2023-03-26T02:47:47;4.87;;;3.43;;
18818;SDS011;9537;45.594;9.294;2023-03-26T02:48:50;7.07;;;4.03;;
18818;SDS011;9537;45.594;9.294;2023-03-26T02:49:51;4.70;;;3.87;;
18818;SDS011;9537;45.594;9.294;2023-03-26T02:50:53;7.73;;;3.90;;
18818;SDS011;9537;45.594;9.294;2023-03-26T02:51:53;5.60;;;3.90;;
18818;SDS011;9537;45.594;9.294;2023-03-26T02:52:56;7.27;;;3.90;;
18818;SDS011;9537;45.594;9.294;2023-03-26T02:53:57;6.87;;;3.70;;
18818;SDS011;9537;45.594;9.294;2023-03-26T02:55:00;5.53;;;3.93;;
18818;SDS011;9537;45.594;9.294;2023-03-26T02:56:01;7.47;;;4.40;;
18818;SDS011;9537;45.594;9.294;2023-03-26T02:57:05;6.67;;;4.40;;
18818;SDS011;9537;45.594;9.294;2023-03-26T02:58:06;8.37;;;5.00;;
18818;SDS011;9537;45.594;9.294;2023-03-26T02:59:08;7.77;;;5.13;;
18818;SDS011;9537;45.594;9.294;2023-03-26T03:00:10;11.20;;;6.17;;
18818;SDS011;9537;45.594;9.294;2023-03-26T03:01:15;7.80;;;5.60;;
18818;SDS011;9537;45.594;9.294;2023-03-26T03:02:17;8.67;;;6.87;;
18818;SDS011;9537;45.594;9.294;2023-03-26T03:03:20;8.10;;;6.10;;
18818;SDS011;9537;45.594;9.294;2023-03-26T03:04:25;7.70;;;5.87;;
18818;SDS011;9537;45.594;9.294;2023-03-26T03:05:27;9.23;;;6.83;;
18818;SDS011;9537;45.594;9.294;2023-03-26T03:06:30;11.67;;;6.70;;
18818;SDS011;9537;45.594;9.294;2023-03-26T03:07:32;8.57;;;6.70;;
18818;SDS011;9537;45.594;9.294;2023-03-26T03:08:38;9.30;;;7.87;;
18818;SDS011;9537;45.594;9.294;2023-03-26T03:09:40;13.40;;;8.10;;
18818;SDS011;9537;45.594;9.294;2023-03-26T03:10:41;10.73;;;7.97;;
18818;SDS011;9537;45.594;9.294;2023-03-26T03:11:44;10.37;;;7.80;;
18818;SDS011;9537;45.594;9.294;2023-03-26T03:12:46;14.60;;;8.00;;
18818;SDS011;9537;45.594;9.294;2023-03-26T03:13:48;9.87;;;7.30;;
18818;SDS011;9537;45.594;9.294;2023-03-26T03:14:50;9.23;;;7.87;;
18818;SDS011;9537;45.594;9.294;2023-03-26T03:15:52;11.40;;;7.83;;
18818;SDS011;9537;45.594;9.294;2023-03-26T03:16:53;18.80;;;8.67;;
18818;SDS011;9537;45.594;9.294;2023-03-26T03:17:55;10.73;;;8.47;;
18818;SDS011;9537;45.594;9.294;2023-03-26T03:18:56;13.57;;;8.00;;
18818;SDS011;9537;45.594;9.294;2023-03-26T03:19:59;11.07;;;8.37;;
18818;SDS011;9537;45.594;9.294;2023-03-26T03:21:00;12.23;;;8.20;;
18818;SDS011;9537;45.594;9.294;2023-03-26T03:22:02;13.13;;;8.87;;
18818;SDS011;9537;45.594;9.294;2023-03-26T03:23:03;10.40;;;8.37;;
18818;SDS011;9537;45.594;9.294;2023-03-26T03:24:05;15.23;;;9.87;;
18818;SDS011;9537;45.594;9.294;2023-03-26T03:25:07;13.37;;;9.07;;
18818;SDS011;9537;45.594;9.294;2023-03-26T03:26:14;11.80;;;9.13;;
18818;SDS011;9537;45.594;9.294;2023-03-26T03:27:16;11.30;;;8.97;;
18818;SDS011;9537;45.594;9.294;2023-03-26T03:28:21;14.83;;;9.77;;
18818;SDS011;9537;45.594;9.294;2023-03-26T03:29:22;13.20;;;9.20;;
18818;SDS011;9537;45.594;9.294;2023-03-26T03:30:24;11.87;;;9.70;;
18818;SDS011;9537;45.594;9.294;2023-03-26T03:31:26;13.60;;;10.27;;
18818;SDS011;9537;45.594;9.294;2023-03-26T03:32:28;16.93;;;10.90;;
18818;SDS011;9537;45.594;9.294;2023-03-26T03:33:29;15.00;;;11.47;;
18818;SDS011;9537;45.594;9.294;2023-03-26T03:34:31;16.07;;;11.07;;
18818;SDS011;9537;45.594;9.294;2023-03-26T03:35:32;15.13;;;11.17;;
18818;SDS011;9537;45.594;9.294;2023-03-26T03:36:34;15.77;;;11.77;;
18818;SDS011;9537;45.594;9.294;2023-03-26T03:37:37;13.07;;;10.60;;
18818;SDS011;9537;45.594;9.294;2023-03-26T03:38:39;14.90;;;11.77;;
18818;SDS011;9537;45.594;9.294;2023-03-26T03:39:42;15.93;;;11.20;;
18818;SDS011;9537;45.594;9.294;2023-03-26T03:40:43;14.87;;;11.13;;
18818;SDS011;9537;45.594;9.294;2023-03-26T03:41:45;14.13;;;11.50;;
18818;SDS011;9537;45.594;9.294;2023-03-26T03:42:46;15.20;;;11.03;;
18818;SDS011;9537;45.594;9.294;2023-03-26T03:43:50;16.07;;;11.97;;
18818;SDS011;9537;45.594;9.294;2023-03-26T03:44:51;14.93;;;11.93;;
18818;SDS011;9537;45.594;9.294;2023-03-26T03:45:53;15.73;;;12.13;;
18818;SDS011;9537;45.594;9.294;2023-03-26T03:46:54;16.43;;;12.73;;
18818;SDS011;9537;45.594;9.294;2023-03-26T03:47:56;17.60;;;11.80;;
18818;SDS011;9537;45.594;9.294;2023-03-26T03:48:57;16.27;;;11.93;;
18818;SDS011;9537;45.594;9.294;2023-03-26T03:49:59;15.97;;;11.50;;
18818;SDS011;9537;45.594;9.294;2023-03-26T03:51:00;17.83;;;12.00;;
18818;SDS011;9537;45.594;9.294;2023-03-26T03:52:02;15.47;;;12.03;;
18818;SDS011;9537;45.594;9.294;2023-03-26T03:53:03;18.47;;;12.03;;
18818;SDS011;9537;45.594;9.294;2023-03-26T03:54:06;16.27;;;12.40;;
18818;SDS011;9537;45.594;9.294;2023-03-26T03:55:08;15.10;;;11.37;;
18818;SDS011;9537;45.594;9.294;2023-03-26T03:56:10;14.97;;;11.47;;
18818;SDS011;9537;45.594;9.294;2023-03-26T03:57:13;15.47;;;11.70;;
18818;SDS011;9537;45.594;9.294;2023-03-26T03:58:18;14.30;;;11.47;;
18818;SDS011;9537;45.594;9.294;2023-03-26T03:59:22;15.37;;;11.63;;
18818;SDS011;9537;45.594;9.294;2023-03-26T04:00:24;14.00;;;11.43;;
18818;SDS011;9537;45.594;9.294;2023-03-26T04:01:25;17.10;;;11.77;;
18818;SDS011;9537;45.594;9.294;2023-03-26T04:02:30;17.83;;;12.30;;
18818;SDS011;9537;45.594;9.294;2023-03-26T04:03:34;15.70;;;11.70;;
18818;SDS011;9537;45.594;9.294;2023-03-26T04:04:41;14.30;;;11.67;;
18818;SDS011;9537;45.594;9.294;2023-03-26T04:05:42;15.83;;;11.23;;
18818;SDS011;9537;45.594;9.294;2023-03-26T04:06:49;16.70;;;12.20;;
18818;SDS011;9537;45.594;9.294;2023-03-26T04:07:50;15.10;;;12.00;;
18818;SDS011;9537;45.594;9.294;2023-03-26T04:08:52;17.00;;;11.70;;
18818;SDS011;9537;45.594;9.294;2023-03-26T04:09:54;16.43;;;11.70;;
18818;SDS011;9537;45.594;9.294;2023-03-26T04:10:55;17.90;;;12.80;;
18818;SDS011;9537;45.594;9.294;2023-03-26T04:11:57;13.50;;;11.77;;
18818;SDS011;9537;45.594;9.294;2023-03-26T04:12:58;12.83;;;11.10;;
18818;SDS011;9537;45.594;9.294;2023-03-26T04:14:01;17.97;;;11.90;;
18818;SDS011;9537;45.594;9.294;2023-03-26T04:15:04;15.50;;;11.93;;
18818;SDS011;9537;45.594;9.294;2023-03-26T04:16:06;16.83;;;11.97;;
18818;SDS011;9537;45.594;9.294;2023-03-26T04:17:08;14.83;;;11.70;;
18818;SDS011;9537;45.594;9.294;2023-03-26T04:18:12;13.97;;;12.43;;
18818;SDS011;9537;45.594;9.294;2023-03-26T04:19:14;15.00;;;12.07;;
18818;SDS011;9537;45.594;9.294;2023-03-26T04:20:16;16.00;;;11.90;;
18818;SDS011;9537;45.594;9.294;2023-03-26T04:21:18;17.10;;;11.97;;
18818;SDS011;9537;45.594;9.294;2023-03-26T04:22:20;17.63;;;12.23;;
18818;SDS011;9537;45.594;9.294;2023-03-26T04:23:21;18.77;;;12.67;;
18818;SDS011;9537;45.594;9.294;2023-03-26T04:24:23;14.27;;;11.43;;
18818;SDS011;9537;45.594;9.294;2023-03-26T04:25:25;16.47;;;12.70;;
18818;SDS011;9537;45.594;9.294;2023-03-26T04:26:29;15.03;;;12.23;;
18818;SDS011;9537;45.594;9.294;2023-03-26T04:27:31;14.40;;;11.90;;
18818;SDS011;9537;45.594;9.294;2023-03-26T04:28:39;14.23;;;11.10;;
18818;SDS011;9537;45.594;9.294;2023-03-26T04:29:43;16.07;;;12.07;;
18818;SDS011;9537;45.594;9.294;2023-03-26T04:30:48;15.50;;;12.70;;
18818;SDS011;9537;45.594;9.294;2023-03-26T04:31:53;15.27;;;11.73;;
18818;SDS011;9537;45.594;9.294;2023-03-26T04:33:05;16.33;;;11.63;;
18818;SDS011;9537;45.594;9.294;2023-03-26T04:34:12;17.83;;;11.83;;
18818;SDS011;9537;45.594;9.294;2023-03-26T04:35:23;16.20;;;11.70;;
18818;SDS011;9537;45.594;9.294;2023-03-26T04:36:25;15.03;;;11.43;;
18818;SDS011;9537;45.594;9.294;2023-03-26T04:37:30;17.53;;;12.77;;
18818;SDS011;9537;45.594;9.294;2023-03-26T04:38:36;15.87;;;12.10;;
18818;SDS011;9537;45.594;9.294;2023-03-26T04:39:41;16.27;;;12.27;;
18818;SDS011;9537;45.594;9.294;2023-03-26T04:40:44;17.63;;;12.40;;
18818;SDS011;9537;45.594;9.294;2023-03-26T04:41:47;17.33;;;12.10;;
18818;SDS011;9537;45.594;9.294;2023-03-26T04:42:48;17.07;;;12.47;;
18818;SDS011;9537;45.594;9.294;2023-03-26T04:43:54;17.30;;;11.93;;
18818;SDS011;9537;45.594;9.294;2023-03-26T04:44:56;15.20;;;13.00;;
18818;SDS011;9537;45.594;9.294;2023-03-26T04:46:00;16.80;;;12.13;;
18818;SDS011;9537;45.594;9.294;2023-03-26T04:47:02;14.87;;;11.83;;
18818;SDS011;9537;45.594;9.294;2023-03-26T04:48:04;16.93;;;12.30;;
18818;SDS011;9537;45.594;9.294;2023-03-26T04:49:06;15.97;;;12.20;;
18818;SDS011;9537;45.594;9.294;2023-03-26T04:50:09;14.87;;;11.10;;
18818;SDS011;9537;45.594;9.294;2023-03-26T04:51:11;16.13;;;11.47;;
18818;SDS011;9537;45.594;9.294;2023-03-26T04:52:17;14.87;;;11.17;;
18818;SDS011;9537;45.594;9.294;2023-03-26T04:53:18;14.90;;;11.63;;
18818;SDS011;9537;45.594;9.294;2023-03-26T04:54:21;14.23;;;11.07;;
18818;SDS011;9537;45.594;9.294;2023-03-26T04:55:24;19.13;;;12.23;;
18818;SDS011;9537;45.594;9.294;2023-03-26T04:56:35;17.90;;;12.53;;
18818;SDS011;9537;45.594;9.294;2023-03-26T04:57:42;18.67;;;11.27;;
18818;SDS011;9537;45.594;9.294;2023-03-26T04:58:47;15.83;;;12.17;;
18818;SDS011;9537;45.594;9.294;2023-03-26T04:59:49;17.37;;;12.77;;
18818;SDS011;9537;45.594;9.294;2023-03-26T05:00:51;19.03;;;12.33;;
18818;SDS011;9537;45.594;9.294;2023-03-26T05:01:54;17.93;;;13.07;;
18818;SDS011;9537;45.594;9.294;2023-03-26T05:02:57;15.00;;;11.63;;
18818;SDS011;9537;45.594;9.294;2023-03-26T05:03:58;15.03;;;12.00;;
18818;SDS011;9537;45.594;9.294;2023-03-26T05:05:00;14.83;;;11.37;;
18818;SDS011;9537;45.594;9.294;2023-03-26T05:06:02;15.43;;;11.30;;
18818;SDS011;9537;45.594;9.294;2023-03-26T05:07:04;14.83;;;11.43;;
18818;SDS011;9537;45.594;9.294;2023-03-26T05:08:06;14.13;;;11.90;;
18818;SDS011;9537;45.594;9.294;2023-03-26T05:09:09;15.37;;;11.30;;
18818;SDS011;9537;45.594;9.294;2023-03-26T05:10:10;14.67;;;11.97;;
18818;SDS011;9537;45.594;9.294;2023-03-26T05:11:13;15.87;;;10.97;;
18818;SDS011;9537;45.594;9.294;2023-03-26T05:12:15;15.47;;;12.77;;
18818;SDS011;9537;45.594;9.294;2023-03-26T05:13:17;17.70;;;11.63;;
18818;SDS011;9537;45.594;9.294;2023-03-26T05:14:18;16.63;;;11.23;;
18818;SDS011;9537;45.594;9.294;2023-03-26T05:15:20;15.00;;;11.17;;
18818;SDS011;9537;45.594;9.294;2023-03-26T05:16:21;17.30;;;11.03;;
18818;SDS011;9537;45.594;9.294;2023-03-26T05:17:25;14.43;;;11.40;;
18818;SDS011;9537;45.594;9.294;2023-03-26T05:18:30;13.50;;;10.80;;
18818;SDS011;9537;45.594;9.294;2023-03-26T05:19:32;13.00;;;11.20;;
18818;SDS011;9537;45.594;9.294;2023-03-26T05:20:34;14.53;;;11.73;;
18818;SDS011;9537;45.594;9.294;2023-03-26T05:21:36;15.83;;;11.80;;
18818;SDS011;9537;45.594;9.294;2023-03-26T05:22:37;16.00;;;11.57;;
18818;SDS011;9537;45.594;9.294;2023-03-26T05:23:39;14.20;;;11.60;;
18818;SDS011;9537;45.594;9.294;2023-03-26T05:24:40;16.87;;;12.17;;
18818;SDS011;9537;45.594;9.294;2023-03-26T05:25:42;14.30;;;10.87;;
18818;SDS011;9537;45.594;9.294;2023-03-26T05:26:43;16.23;;;11.60;;
18818;SDS011;9537;45.594;9.294;2023-03-26T05:27:45;16.80;;;11.63;;
18818;SDS011;9537;45.594;9.294;2023-03-26T05:28:46;13.67;;;11.30;;
18818;SDS011;9537;45.594;9.294;2023-03-26T05:29:48;14.03;;;10.57;;
18818;SDS011;9537;45.594;9.294;2023-03-26T05:30:50;15.03;;;10.47;;
18818;SDS011;9537;45.594;9.294;2023-03-26T05:31:52;15.97;;;11.13;;
18818;SDS011;9537;45.594;9.294;2023-03-26T05:32:55;13.57;;;10.43;;
18818;SDS011;9537;45.594;9.294;2023-03-26T05:33:57;16.43;;;11.57;;
18818;SDS011;9537;45.594;9.294;2023-03-26T05:34:59;13.30;;;10.73;;
18818;SDS011;9537;45.594;9.294;2023-03-26T05:36:02;13.77;;;11.60;;
18818;SDS011;9537;45.594;9.294;2023-03-26T05:37:06;17.87;;;11.93;;
18818;SDS011;9537;45.594;9.294;2023-03-26T05:38:08;14.13;;;11.23;;
18818;SDS011;9537;45.594;9.294;2023-03-26T05:39:10;12.87;;;10.90;;
18818;SDS011;9537;45.594;9.294;2023-03-26T05:40:13;19.20;;;12.27;;
18818;SDS011;9537;45.594;9.294;2023-03-26T05:41:16;16.20;;;12.47;;
18818;SDS011;9537;45.594;9.294;2023-03-26T05:42:17;15.93;;;11.73;;
18818;SDS011;9537;45.594;9.294;2023-03-26T05:43:19;14.00;;;11.10;;
18818;SDS011;9537;45.594;9.294;2023-03-26T05:44:20;15.93;;;11.97;;
18818;SDS011;9537;45.594;9.294;2023-03-26T05:45:22;15.33;;;11.93;;
18818;SDS011;9537;45.594;9.294;2023-03-26T05:46:24;13.33;;;10.80;;
18818;SDS011;9537;45.594;9.294;2023-03-26T05:47:26;15.97;;;11.67;;
18818;SDS011;9537;45.594;9.294;2023-03-26T05:48:30;15.37;;;11.23;;
18818;SDS011;9537;45.594;9.294;2023-03-26T05:49:31;17.03;;;11.23;;
18818;SDS011;9537;45.594;9.294;2023-03-26T05:50:33;16.97;;;11.03;;
18818;SDS011;9537;45.594;9.294;2023-03-26T05:51:34;15.23;;;11.47;;
18818;SDS011;9537;45.594;9.294;2023-03-26T05:52:36;17.67;;;11.10;;
18818;SDS011;9537;45.594;9.294;2023-03-26T05:53:37;14.80;;;11.73;;
18818;SDS011;9537;45.594;9.294;2023-03-26T05:54:40;13.13;;;10.23;;
18818;SDS011;9537;45.594;9.294;2023-03-26T05:55:42;14.07;;;10.40;;
18818;SDS011;9537;45.594;9.294;2023-03-26T05:56:49;13.73;;;11.60;;
18818;SDS011;9537;45.594;9.294;2023-03-26T05:57:50;14.90;;;10.73;;
18818;SDS011;9537;45.594;9.294;2023-03-26T05:58:52;15.97;;;10.63;;
18818;SDS011;9537;45.594;9.294;2023-03-26T05:59:55;13.20;;;10.60;;
18818;SDS011;9537;45.594;9.294;2023-03-26T06:00:57;13.03;;;10.83;;
18818;SDS011;9537;45.594;9.294;2023-03-26T06:01:59;14.77;;;10.50;;
18818;SDS011;9537;45.594;9.294;2023-03-26T06:03:01;13.53;;;9.93;;
18818;SDS011;9537;45.594;9.294;2023-03-26T06:04:03;15.43;;;10.87;;
18818;SDS011;9537;45.594;9.294;2023-03-26T06:05:06;14.40;;;9.47;;
18818;SDS011;9537;45.594;9.294;2023-03-26T06:06:08;14.73;;;9.53;;
18818;SDS011;9537;45.594;9.294;2023-03-26T06:07:14;12.40;;;9.77;;
18818;SDS011;9537;45.594;9.294;2023-03-26T06:08:16;15.00;;;10.03;;
18818;SDS011;9537;45.594;9.294;2023-03-26T06:09:18;11.53;;;9.50;;
18818;SDS011;9537;45.594;9.294;2023-03-26T06:10:20;12.77;;;10.20;;
18818;SDS011;9537;45.594;9.294;2023-03-26T06:11:22;15.70;;;9.80;;
18818;SDS011;9537;45.594;9.294;2023-03-26T06:12:24;12.43;;;9.10;;
18818;SDS011;9537;45.594;9.294;2023-03-26T06:13:25;11.17;;;9.13;;
18818;SDS011;9537;45.594;9.294;2023-03-26T06:14:28;13.27;;;9.07;;
18818;SDS011;9537;45.594;9.294;2023-03-26T06:15:28;13.33;;;9.30;;
18818;SDS011;9537;45.594;9.294;2023-03-26T06:16:31;12.73;;;9.80;;
18818;SDS011;9537;45.594;9.294;2023-03-26T06:17:32;13.00;;;9.60;;
18818;SDS011;9537;45.594;9.294;2023-03-26T06:18:34;9.90;;;8.73;;
18818;SDS011;9537;45.594;9.294;2023-03-26T06:19:37;13.33;;;9.43;;
18818;SDS011;9537;45.594;9.294;2023-03-26T06:20:39;12.27;;;9.30;;
18818;SDS011;9537;45.594;9.294;2023-03-26T06:21:40;11.60;;;9.17;;
18818;SDS011;9537;45.594;9.294;2023-03-26T06:22:42;11.00;;;8.23;;